Welcome to our new website - Welkom op onze vernieuwde website - Bienvenue sur notre nouveau site web - Willkommen auf unserer neuen Website
Check our progress frequently. Prüfen Sie unsere Fortschritte regelmäßig. Consultez notre progression fréquemment. Komt u straks nog eens terug
Regen van: 25-09-2020 18:05 tot: 26-09-2020 23:59 waarschuwing voor: Regen niveau: Geel info button
Wind van: 25-09-2020 18:05 tot: 26-09-2020 06:59 waarschuwing voor: Wind niveau: Geel info button


Webcam Wortegem - Petegem  Webcam Wortegem - Petegem


Onweer radar Meer informatie blitzortung!


waarschuwing voor Regen Meer informatie rain snow radar


Bezoek ook deze websites:

Template documentation
and downloads

And another site



METAR rapporten vliegvelden

   
EHVK - Volkel Rnlafb, Netherlands
Afstand tot: ZW 18 km
Gewijzigd: 25-09-2020 18:55
Regen, Grotendeels bewolkt  
Regen, Grotendeels bewolkt  
   Wind: ZZW 25.9 km/h
Wind: ZZW 25.9 km/h
Temperatuur: 10°C
Voelt als: 7°C
Dauwpunt: 9°C
Vochtigheid: 94%
Barometer: 994 hPa
Bewolking: Grotendeels bewolkt
Zicht: 3 km
Bewolking: Licht bewolkt 1000 ft,
Licht bewolkt 1500 ft,
Gedeeltelijk bewolkt 1700 ft,
Grotendeels bewolkt 2400 ft
EHVK 251655Z AUTO 20014KT 160V240 3000 RA FEW010 FEW015CB SCT017 BKN024 10/09 Q0994 RERA REDZ YLO
EDLV - Niederrhein, Germany
Afstand tot: ZO 25 km
Gewijzigd: 25-09-2020 18:50
Gedeeltelijk bewolkt  
Gedeeltelijk bewolkt  
   Wind: ZZW 18.5 km/h
Wind: ZZW 18.5 km/h
Temperatuur: 11°C
Dauwpunt: 8°C
Vochtigheid: 82%
Barometer: 995 hPa
Bewolking: Gedeeltelijk bewolkt
Zicht: meer dan 10 km
Bewolking: Gedeeltelijk bewolkt 2500 ft
EDLV 251650Z 21010KT 9999 SCT025 11/08 Q0995
EHDL - Deelen Rnlafb, Netherlands
Afstand tot: N 35 km
Gewijzigd: 25-09-2020 18:55
Grotendeels bewolkt  
Grotendeels bewolkt  
   Wind: Zuiden 27.8 km/h
Wind: Zuiden 27.8 km/h
Temperatuur: 11°C
Dauwpunt: 8°C
Vochtigheid: 82%
Barometer: 993 hPa
Bewolking: Grotendeels bewolkt
Zicht: meer dan 10 km
Bewolking: Grotendeels bewolkt 1600 ft,
Grotendeels bewolkt 1900 ft,
Grotendeels bewolkt 2300 ft
EHDL 251655Z AUTO 19015KT 130V260 9999 BKN016 BKN019 BKN023 11/08 Q0993 WHT
EHEH - Eindhoven Rnlafb, Netherlands
Afstand tot: ZW 48 km
Gewijzigd: 25-09-2020 18:41
Heavy Drizzle, Grotendeels bewolkt  
Heavy Drizzle, Grotendeels bewolkt  
   Wind: ZZW 25.9 km/h
Wind: ZZW 25.9 km/h
Temperatuur: 10°C
Voelt als: 7°C
Dauwpunt: 9°C
Vochtigheid: 94%
Barometer: 995 hPa
Bewolking: Grotendeels bewolkt
Zicht: 4 km
Bewolking: Licht bewolkt 600 ft,
Gedeeltelijk bewolkt 700 ft,
Grotendeels bewolkt 800 ft,
Licht bewolkt 1500 ft
EHEH 251641Z AUTO 21014KT 170V230 3800 +DZ FEW006 SCT007 BKN008 FEW015CB 10/09 Q0995 GRN TEMPO 22015G25KT 3000 RADZ SHRA SCT008 SCT012 BKN017CB
EHGR - Gilze-Rijen Rnla, Netherlands
Afstand tot: WZW 70 km
Gewijzigd: 25-09-2020 18:55
Heavy Drizzle, Bewolking  
Heavy Drizzle, Bewolking  
   Wind: ZW 16.7 km/h
Wind: ZW 16.7 km/h
Temperatuur: 11°C
Dauwpunt: 10°C
Vochtigheid: 94%
Barometer: 994 hPa
Bewolking: Bewolking
Zicht: 5 km
Bewolking: Licht bewolkt 900 ft,
Grotendeels bewolkt 1500 ft,
Bewolking 1900 ft
EHGR 251655Z AUTO 23009KT 200V270 5000 +DZ FEW009 BKN015 OVC019 11/10 Q0994 WHT
EBBL - Kleine-Brogel(Ba, Belgium
Afstand tot: ZZW 71 km
Gewijzigd: 25-09-2020 18:25
Regen, Grotendeels bewolkt  
Regen, Grotendeels bewolkt  
   Wind: ZW 20.4 km/h
Wind: ZW 20.4 km/h
Temperatuur: 10°C
Voelt als: 7°C
Dauwpunt: 9°C
Vochtigheid: 94%
Barometer: 996 hPa
Bewolking: Grotendeels bewolkt
Zicht: meer dan 10 km
Bewolking: Grotendeels bewolkt 1700 ft
EBBL 251625Z AUTO 22011KT 9999 RA BKN017/// 10/09 Q0996 WHT

Script ontwikkeld door  Saratoga-weather.org Aangepast voor de template door  Weerstation Leuven

U vindt ons ook hier:

Het Weer Aktueel

UK Metoffice

WeatherCloud

Apparatuur in gebruik:

Weerprogramma
Meteobridge

Meteobridge